Bosler, Wyoming
Current Conditions -  °F | °C
As of 6:53 PM on Sunday 21 Dec 2014 (Local Time) from KLAR Reporting Station
Broken Clouds Broken Clouds  
Wind Chill: 21°   Ceiling: 6500
Heat Index: 34°   Visibility: 9mi
Dew Point: 29°   Wind: 25mph
Humidity: 82%   Direction: 310°NW
Pressure: 29.59"   Gusts: 35mph
Location:  41.58°N, 105.7°W
Report Text: KLAR 220153Z AUTO 31022G30KT 9SM SCT040 BKN065 BKN080 01/M02 A2959 RMK AO2 PK WND 30031/0119 SNB39E48 SLP007 P0000 T00111017
Loading
Personal Weather Stations






























Interactive Weather Map New forecast layout! Learn more

10-Day Weather Forecast

Advertisements
Track Severe Weather on mobile